Accueil
METAR-TAF:

METAR-TAF

Aéroports :

Gwâlior, Inde

latitude: 26-17-36N, longitude: 78-13-40E, altitude: 188 m

METAR: absent

Heure: 08:35 (03:05 UTC)

Prévision

Le bulletin a été fait il y a 17 heures et 35 minutes, à 09:30 UTC
Prévision valable du 07 à 12 UTC au 08 à 00 UTC
Vent 5 kt de ouest/nord-ouest
Visibilité: 6000 m
Quelques nuages à une hauteur de 3000 ft
Nuages épars à une hauteur de 25000 ft
Temporairement
du 07 à 12 UTC au 07 à 14 UTC
Quelques nuages à une hauteur de 4000 ft, Cumulus congestus.

TAF: VIGR 070930Z 0712/0800 30005KT 6000 FEW030 SCT250 TEMPO 0712/0714 FEW040TCU

Observations et prévisions météorologiques de plus de 4000 aéroports (messages METAR et TAF).

Les stations disponibles sont représentées par des disques jaunes et rouges sur la carte.

Passer la souris dessus pour voir le nom de la station.

Cliquer dessus pour voir les observations et prévisions météorologiques.

Pour changer de carte: cliquez sur les boutons verts avec une croix noire pour zoomer, sur le bouton vert avec un tiret pour effectuer un zoom arrière, ou sur les flèches vertes pour les cartes adjacentes.


METAR-TAF: